sensor_id;sensor_type;location;lat;lon;timestamp;P1;durP1;ratioP1;P2;durP2;ratioP2
6983;SDS011;3532;51.118;7.210;2022-11-15T00:01:32;13.73;;;10.53;;
6983;SDS011;3532;51.118;7.210;2022-11-15T00:03:57;14.90;;;11.70;;
6983;SDS011;3532;51.118;7.210;2022-11-15T00:06:23;14.67;;;11.33;;
6983;SDS011;3532;51.118;7.210;2022-11-15T00:08:49;15.57;;;11.83;;
6983;SDS011;3532;51.118;7.210;2022-11-15T00:11:14;13.27;;;11.27;;
6983;SDS011;3532;51.118;7.210;2022-11-15T00:13:40;12.93;;;11.13;;
6983;SDS011;3532;51.118;7.210;2022-11-15T00:16:05;14.77;;;10.27;;
6983;SDS011;3532;51.118;7.210;2022-11-15T00:18:31;15.93;;;12.13;;
6983;SDS011;3532;51.118;7.210;2022-11-15T00:20:56;18.33;;;12.13;;
6983;SDS011;3532;51.118;7.210;2022-11-15T00:23:29;17.17;;;13.60;;
6983;SDS011;3532;51.118;7.210;2022-11-15T00:25:57;13.23;;;10.80;;
6983;SDS011;3532;51.118;7.210;2022-11-15T00:28:23;12.63;;;10.77;;
6983;SDS011;3532;51.118;7.210;2022-11-15T00:30:49;20.63;;;12.33;;
6983;SDS011;3532;51.118;7.210;2022-11-15T00:33:14;11.33;;;10.23;;
6983;SDS011;3532;51.118;7.210;2022-11-15T00:35:40;14.20;;;12.67;;
6983;SDS011;3532;51.118;7.210;2022-11-15T00:38:05;16.90;;;12.00;;
6983;SDS011;3532;51.118;7.210;2022-11-15T00:40:30;13.93;;;10.90;;
6983;SDS011;3532;51.118;7.210;2022-11-15T00:42:56;13.57;;;12.17;;
6983;SDS011;3532;51.118;7.210;2022-11-15T00:45:21;13.57;;;11.07;;
6983;SDS011;3532;51.118;7.210;2022-11-15T00:47:47;14.83;;;11.53;;
6983;SDS011;3532;51.118;7.210;2022-11-15T00:50:12;12.33;;;11.03;;
6983;SDS011;3532;51.118;7.210;2022-11-15T00:52:38;12.53;;;11.23;;
6983;SDS011;3532;51.118;7.210;2022-11-15T00:55:03;13.60;;;10.87;;
6983;SDS011;3532;51.118;7.210;2022-11-15T00:57:29;13.53;;;11.33;;
6983;SDS011;3532;51.118;7.210;2022-11-15T00:59:54;14.27;;;12.03;;
6983;SDS011;3532;51.118;7.210;2022-11-15T01:02:19;13.53;;;11.80;;
6983;SDS011;3532;51.118;7.210;2022-11-15T01:04:45;13.43;;;12.13;;
6983;SDS011;3532;51.118;7.210;2022-11-15T01:07:10;12.53;;;11.10;;
6983;SDS011;3532;51.118;7.210;2022-11-15T01:09:35;18.33;;;12.93;;
6983;SDS011;3532;51.118;7.210;2022-11-15T01:12:01;15.40;;;11.63;;
6983;SDS011;3532;51.118;7.210;2022-11-15T01:14:26;13.30;;;11.53;;
6983;SDS011;3532;51.118;7.210;2022-11-15T01:16:51;12.87;;;10.93;;
6983;SDS011;3532;51.118;7.210;2022-11-15T01:19:17;13.23;;;11.27;;
6983;SDS011;3532;51.118;7.210;2022-11-15T01:21:42;16.13;;;12.47;;
6983;SDS011;3532;51.118;7.210;2022-11-15T01:24:07;14.73;;;12.43;;
6983;SDS011;3532;51.118;7.210;2022-11-15T01:26:33;13.57;;;11.73;;
6983;SDS011;3532;51.118;7.210;2022-11-15T01:28:58;13.30;;;11.90;;
6983;SDS011;3532;51.118;7.210;2022-11-15T01:31:24;16.13;;;11.33;;
6983;SDS011;3532;51.118;7.210;2022-11-15T01:33:49;15.40;;;11.37;;
6983;SDS011;3532;51.118;7.210;2022-11-15T01:36:18;16.00;;;11.57;;
6983;SDS011;3532;51.118;7.210;2022-11-15T01:38:55;13.10;;;10.87;;
6983;SDS011;3532;51.118;7.210;2022-11-15T01:41:22;12.07;;;10.50;;
6983;SDS011;3532;51.118;7.210;2022-11-15T01:43:51;10.77;;;9.67;;
6983;SDS011;3532;51.118;7.210;2022-11-15T01:48:46;16.77;;;11.70;;
6983;SDS011;3532;51.118;7.210;2022-11-15T01:51:12;15.10;;;11.73;;
6983;SDS011;3532;51.118;7.210;2022-11-15T01:53:39;12.77;;;11.23;;
6983;SDS011;3532;51.118;7.210;2022-11-15T01:56:06;12.73;;;11.40;;
6983;SDS011;3532;51.118;7.210;2022-11-15T01:58:33;11.93;;;10.33;;
6983;SDS011;3532;51.118;7.210;2022-11-15T02:00:59;14.87;;;11.70;;
6983;SDS011;3532;51.118;7.210;2022-11-15T02:03:26;14.80;;;12.07;;
6983;SDS011;3532;51.118;7.210;2022-11-15T02:05:59;15.27;;;11.03;;
6983;SDS011;3532;51.118;7.210;2022-11-15T02:08:24;13.43;;;11.70;;
6983;SDS011;3532;51.118;7.210;2022-11-15T02:10:49;12.97;;;10.83;;
6983;SDS011;3532;51.118;7.210;2022-11-15T02:13:15;14.47;;;10.87;;
6983;SDS011;3532;51.118;7.210;2022-11-15T02:15:44;13.53;;;10.97;;
6983;SDS011;3532;51.118;7.210;2022-11-15T02:18:21;13.53;;;11.87;;
6983;SDS011;3532;51.118;7.210;2022-11-15T02:21:03;13.40;;;11.30;;
6983;SDS011;3532;51.118;7.210;2022-11-15T02:27:08;15.77;;;11.17;;
6983;SDS011;3532;51.118;7.210;2022-11-15T02:32:40;12.77;;;10.43;;
6983;SDS011;3532;51.118;7.210;2022-11-15T02:40:34;16.30;;;11.33;;
6983;SDS011;3532;51.118;7.210;2022-11-15T02:43:07;14.73;;;10.70;;
6983;SDS011;3532;51.118;7.210;2022-11-15T02:46:10;14.00;;;10.97;;
6983;SDS011;3532;51.118;7.210;2022-11-15T02:49:18;13.73;;;11.47;;
6983;SDS011;3532;51.118;7.210;2022-11-15T02:51:44;16.57;;;12.77;;
6983;SDS011;3532;51.118;7.210;2022-11-15T02:54:14;14.50;;;11.27;;
6983;SDS011;3532;51.118;7.210;2022-11-15T02:56:43;17.77;;;11.30;;
6983;SDS011;3532;51.118;7.210;2022-11-15T02:59:19;13.83;;;11.70;;
6983;SDS011;3532;51.118;7.210;2022-11-15T03:13:27;12.33;;;10.90;;
6983;SDS011;3532;51.118;7.210;2022-11-15T03:18:34;15.70;;;9.77;;
6983;SDS011;3532;51.118;7.210;2022-11-15T03:21:02;13.53;;;10.73;;
6983;SDS011;3532;51.118;7.210;2022-11-15T03:23:30;11.70;;;10.50;;
6983;SDS011;3532;51.118;7.210;2022-11-15T03:25:56;13.83;;;10.03;;
6983;SDS011;3532;51.118;7.210;2022-11-15T03:28:24;10.93;;;9.77;;
6983;SDS011;3532;51.118;7.210;2022-11-15T03:30:53;12.03;;;9.83;;
6983;SDS011;3532;51.118;7.210;2022-11-15T03:33:19;11.40;;;9.60;;
6983;SDS011;3532;51.118;7.210;2022-11-15T03:35:46;9.50;;;8.50;;
6983;SDS011;3532;51.118;7.210;2022-11-15T03:38:24;10.20;;;8.77;;
6983;SDS011;3532;51.118;7.210;2022-11-15T03:40:54;10.80;;;9.53;;
6983;SDS011;3532;51.118;7.210;2022-11-15T03:49:04;11.50;;;9.30;;
6983;SDS011;3532;51.118;7.210;2022-11-15T03:51:38;10.60;;;9.50;;
6983;SDS011;3532;51.118;7.210;2022-11-15T03:54:04;9.90;;;8.97;;
6983;SDS011;3532;51.118;7.210;2022-11-15T03:56:30;10.73;;;9.70;;
6983;SDS011;3532;51.118;7.210;2022-11-15T03:58:55;10.67;;;9.20;;
6983;SDS011;3532;51.118;7.210;2022-11-15T04:01:20;10.90;;;9.70;;
6983;SDS011;3532;51.118;7.210;2022-11-15T04:03:46;9.73;;;8.77;;
6983;SDS011;3532;51.118;7.210;2022-11-15T04:06:11;10.10;;;9.07;;
6983;SDS011;3532;51.118;7.210;2022-11-15T04:08:36;11.50;;;9.57;;
6983;SDS011;3532;51.118;7.210;2022-11-15T04:11:02;10.40;;;9.40;;
6983;SDS011;3532;51.118;7.210;2022-11-15T04:13:27;10.87;;;9.77;;
6983;SDS011;3532;51.118;7.210;2022-11-15T04:15:52;11.03;;;9.27;;
6983;SDS011;3532;51.118;7.210;2022-11-15T04:18:17;10.93;;;9.47;;
6983;SDS011;3532;51.118;7.210;2022-11-15T04:20:43;9.80;;;8.77;;
6983;SDS011;3532;51.118;7.210;2022-11-15T04:23:27;10.10;;;9.10;;
6983;SDS011;3532;51.118;7.210;2022-11-15T04:26:31;16.50;;;9.87;;
6983;SDS011;3532;51.118;7.210;2022-11-15T04:28:56;11.07;;;9.93;;
6983;SDS011;3532;51.118;7.210;2022-11-15T04:31:40;10.33;;;9.23;;
6983;SDS011;3532;51.118;7.210;2022-11-15T04:34:05;9.87;;;8.87;;
6983;SDS011;3532;51.118;7.210;2022-11-15T04:36:31;10.20;;;8.73;;
6983;SDS011;3532;51.118;7.210;2022-11-15T04:39:14;10.27;;;9.27;;
6983;SDS011;3532;51.118;7.210;2022-11-15T04:41:40;10.60;;;9.50;;
6983;SDS011;3532;51.118;7.210;2022-11-15T04:44:05;10.30;;;9.30;;
6983;SDS011;3532;51.118;7.210;2022-11-15T04:46:30;10.97;;;9.50;;
6983;SDS011;3532;51.118;7.210;2022-11-15T04:48:56;10.17;;;9.10;;
6983;SDS011;3532;51.118;7.210;2022-11-15T04:51:21;9.60;;;8.60;;
6983;SDS011;3532;51.118;7.210;2022-11-15T04:53:46;10.63;;;9.50;;
6983;SDS011;3532;51.118;7.210;2022-11-15T04:56:12;9.53;;;8.63;;
6983;SDS011;3532;51.118;7.210;2022-11-15T04:58:37;9.73;;;8.83;;
6983;SDS011;3532;51.118;7.210;2022-11-15T05:01:12;10.10;;;9.13;;
6983;SDS011;3532;51.118;7.210;2022-11-15T05:03:43;9.87;;;8.87;;
6983;SDS011;3532;51.118;7.210;2022-11-15T05:06:28;12.80;;;8.73;;
6983;SDS011;3532;51.118;7.210;2022-11-15T05:08:53;9.70;;;8.80;;
6983;SDS011;3532;51.118;7.210;2022-11-15T05:11:19;9.57;;;8.40;;
6983;SDS011;3532;51.118;7.210;2022-11-15T05:13:45;9.80;;;8.37;;
6983;SDS011;3532;51.118;7.210;2022-11-15T05:16:10;9.80;;;7.13;;
6983;SDS011;3532;51.118;7.210;2022-11-15T05:18:36;8.60;;;7.70;;
6983;SDS011;3532;51.118;7.210;2022-11-15T05:21:04;8.90;;;8.10;;
6983;SDS011;3532;51.118;7.210;2022-11-15T05:23:30;9.03;;;7.40;;
6983;SDS011;3532;51.118;7.210;2022-11-15T05:25:59;8.23;;;7.53;;
6983;SDS011;3532;51.118;7.210;2022-11-15T05:28:25;8.83;;;7.80;;
6983;SDS011;3532;51.118;7.210;2022-11-15T05:30:50;8.83;;;7.57;;
6983;SDS011;3532;51.118;7.210;2022-11-15T05:33:16;8.30;;;7.50;;
6983;SDS011;3532;51.118;7.210;2022-11-15T05:35:42;9.53;;;7.13;;
6983;SDS011;3532;51.118;7.210;2022-11-15T05:38:11;8.03;;;7.27;;
6983;SDS011;3532;51.118;7.210;2022-11-15T05:40:36;6.43;;;5.83;;
6983;SDS011;3532;51.118;7.210;2022-11-15T05:43:02;8.27;;;7.47;;
6983;SDS011;3532;51.118;7.210;2022-11-15T05:45:28;8.13;;;7.20;;
6983;SDS011;3532;51.118;7.210;2022-11-15T05:47:54;7.67;;;6.87;;
6983;SDS011;3532;51.118;7.210;2022-11-15T05:50:21;7.57;;;6.60;;
6983;SDS011;3532;51.118;7.210;2022-11-15T05:52:47;6.60;;;6.00;;
6983;SDS011;3532;51.118;7.210;2022-11-15T05:55:12;7.13;;;6.43;;
6983;SDS011;3532;51.118;7.210;2022-11-15T05:57:38;8.10;;;6.90;;
6983;SDS011;3532;51.118;7.210;2022-11-15T06:00:03;6.97;;;6.37;;
6983;SDS011;3532;51.118;7.210;2022-11-15T06:02:29;7.90;;;7.10;;
6983;SDS011;3532;51.118;7.210;2022-11-15T06:04:54;7.13;;;6.13;;
6983;SDS011;3532;51.118;7.210;2022-11-15T06:07:20;8.33;;;6.50;;
6983;SDS011;3532;51.118;7.210;2022-11-15T06:09:45;6.50;;;5.80;;
6983;SDS011;3532;51.118;7.210;2022-11-15T06:12:11;6.00;;;5.50;;
6983;SDS011;3532;51.118;7.210;2022-11-15T06:14:36;8.13;;;5.77;;
6983;SDS011;3532;51.118;7.210;2022-11-15T06:17:01;6.50;;;5.70;;
6983;SDS011;3532;51.118;7.210;2022-11-15T06:19:27;5.70;;;5.10;;
6983;SDS011;3532;51.118;7.210;2022-11-15T06:21:57;7.57;;;5.57;;
6983;SDS011;3532;51.118;7.210;2022-11-15T06:24:22;5.70;;;5.20;;
6983;SDS011;3532;51.118;7.210;2022-11-15T06:26:48;4.90;;;4.47;;
6983;SDS011;3532;51.118;7.210;2022-11-15T06:29:13;4.50;;;4.10;;
6983;SDS011;3532;51.118;7.210;2022-11-15T06:31:39;4.93;;;4.53;;
6983;SDS011;3532;51.118;7.210;2022-11-15T06:34:04;4.90;;;4.40;;
6983;SDS011;3532;51.118;7.210;2022-11-15T06:36:29;4.63;;;4.20;;
6983;SDS011;3532;51.118;7.210;2022-11-15T06:38:55;6.47;;;4.47;;
6983;SDS011;3532;51.118;7.210;2022-11-15T06:41:21;4.63;;;4.20;;
6983;SDS011;3532;51.118;7.210;2022-11-15T06:43:46;4.23;;;3.90;;
6983;SDS011;3532;51.118;7.210;2022-11-15T06:46:12;4.50;;;4.13;;
6983;SDS011;3532;51.118;7.210;2022-11-15T06:48:37;6.47;;;4.17;;
6983;SDS011;3532;51.118;7.210;2022-11-15T06:51:03;4.60;;;3.90;;
6983;SDS011;3532;51.118;7.210;2022-11-15T06:53:29;4.23;;;3.93;;
6983;SDS011;3532;51.118;7.210;2022-11-15T06:55:58;5.07;;;3.93;;
6983;SDS011;3532;51.118;7.210;2022-11-15T06:58:24;4.50;;;4.10;;
6983;SDS011;3532;51.118;7.210;2022-11-15T07:00:49;4.57;;;4.17;;
6983;SDS011;3532;51.118;7.210;2022-11-15T07:03:14;5.13;;;4.63;;
6983;SDS011;3532;51.118;7.210;2022-11-15T07:05:40;5.00;;;4.27;;
6983;SDS011;3532;51.118;7.210;2022-11-15T07:08:05;5.47;;;4.07;;
6983;SDS011;3532;51.118;7.210;2022-11-15T07:10:30;4.83;;;4.37;;
6983;SDS011;3532;51.118;7.210;2022-11-15T07:12:55;4.47;;;4.10;;
6983;SDS011;3532;51.118;7.210;2022-11-15T07:15:23;5.13;;;3.73;;
6983;SDS011;3532;51.118;7.210;2022-11-15T07:17:49;4.17;;;3.77;;
6983;SDS011;3532;51.118;7.210;2022-11-15T07:20:15;4.10;;;3.70;;
6983;SDS011;3532;51.118;7.210;2022-11-15T07:22:41;4.27;;;3.87;;
6983;SDS011;3532;51.118;7.210;2022-11-15T07:25:06;4.77;;;3.80;;
6983;SDS011;3532;51.118;7.210;2022-11-15T07:27:32;4.73;;;4.10;;
6983;SDS011;3532;51.118;7.210;2022-11-15T07:29:57;4.60;;;4.20;;
6983;SDS011;3532;51.118;7.210;2022-11-15T07:32:23;4.90;;;3.60;;
6983;SDS011;3532;51.118;7.210;2022-11-15T07:34:48;5.83;;;4.43;;
6983;SDS011;3532;51.118;7.210;2022-11-15T07:37:13;4.20;;;3.80;;
6983;SDS011;3532;51.118;7.210;2022-11-15T07:39:39;3.83;;;3.43;;
6983;SDS011;3532;51.118;7.210;2022-11-15T07:42:04;3.93;;;3.47;;
6983;SDS011;3532;51.118;7.210;2022-11-15T07:44:59;4.23;;;3.60;;
6983;SDS011;3532;51.118;7.210;2022-11-15T07:47:24;5.07;;;3.53;;
6983;SDS011;3532;51.118;7.210;2022-11-15T07:49:49;3.87;;;3.40;;
6983;SDS011;3532;51.118;7.210;2022-11-15T07:52:15;5.20;;;3.40;;
6983;SDS011;3532;51.118;7.210;2022-11-15T07:54:40;2.83;;;2.63;;
6983;SDS011;3532;51.118;7.210;2022-11-15T07:57:06;3.47;;;3.10;;
6983;SDS011;3532;51.118;7.210;2022-11-15T07:59:32;3.40;;;3.00;;
6983;SDS011;3532;51.118;7.210;2022-11-15T08:01:57;2.97;;;2.67;;
6983;SDS011;3532;51.118;7.210;2022-11-15T08:04:22;3.53;;;2.87;;
6983;SDS011;3532;51.118;7.210;2022-11-15T08:06:48;3.23;;;2.97;;
6983;SDS011;3532;51.118;7.210;2022-11-15T08:09:13;5.20;;;3.00;;
6983;SDS011;3532;51.118;7.210;2022-11-15T08:11:38;4.17;;;2.93;;
6983;SDS011;3532;51.118;7.210;2022-11-15T08:14:04;3.67;;;2.83;;
6983;SDS011;3532;51.118;7.210;2022-11-15T08:16:29;2.70;;;2.43;;
6983;SDS011;3532;51.118;7.210;2022-11-15T08:18:54;2.47;;;2.27;;
6983;SDS011;3532;51.118;7.210;2022-11-15T08:21:20;5.30;;;3.33;;
6983;SDS011;3532;51.118;7.210;2022-11-15T08:23:45;3.80;;;2.43;;
6983;SDS011;3532;51.118;7.210;2022-11-15T08:26:11;2.93;;;2.27;;
6983;SDS011;3532;51.118;7.210;2022-11-15T08:28:36;2.50;;;2.30;;
6983;SDS011;3532;51.118;7.210;2022-11-15T08:31:02;3.47;;;2.80;;
6983;SDS011;3532;51.118;7.210;2022-11-15T08:33:28;3.17;;;2.53;;
6983;SDS011;3532;51.118;7.210;2022-11-15T08:35:56;2.87;;;2.50;;
6983;SDS011;3532;51.118;7.210;2022-11-15T08:38:21;4.67;;;2.40;;
6983;SDS011;3532;51.118;7.210;2022-11-15T08:40:47;2.60;;;1.83;;
6983;SDS011;3532;51.118;7.210;2022-11-15T08:43:12;2.83;;;2.60;;
6983;SDS011;3532;51.118;7.210;2022-11-15T08:45:37;3.77;;;2.20;;
6983;SDS011;3532;51.118;7.210;2022-11-15T08:48:03;2.77;;;2.50;;
6983;SDS011;3532;51.118;7.210;2022-11-15T08:50:28;3.70;;;2.30;;
6983;SDS011;3532;51.118;7.210;2022-11-15T08:52:54;5.07;;;2.10;;
6983;SDS011;3532;51.118;7.210;2022-11-15T08:55:19;3.40;;;2.57;;
6983;SDS011;3532;51.118;7.210;2022-11-15T08:57:44;2.80;;;2.37;;
6983;SDS011;3532;51.118;7.210;2022-11-15T09:00:10;3.83;;;2.30;;
6983;SDS011;3532;51.118;7.210;2022-11-15T09:02:40;4.17;;;2.37;;
6983;SDS011;3532;51.118;7.210;2022-11-15T09:05:05;1.90;;;1.80;;
6983;SDS011;3532;51.118;7.210;2022-11-15T09:07:31;2.90;;;2.50;;
6983;SDS011;3532;51.118;7.210;2022-11-15T09:09:56;2.60;;;2.40;;
6983;SDS011;3532;51.118;7.210;2022-11-15T09:12:22;3.93;;;2.50;;
6983;SDS011;3532;51.118;7.210;2022-11-15T09:14:47;2.23;;;2.03;;
6983;SDS011;3532;51.118;7.210;2022-11-15T09:17:13;2.67;;;2.30;;
6983;SDS011;3532;51.118;7.210;2022-11-15T09:19:38;2.40;;;2.20;;
6983;SDS011;3532;51.118;7.210;2022-11-15T09:22:07;3.53;;;2.40;;
6983;SDS011;3532;51.118;7.210;2022-11-15T09:24:32;2.77;;;2.53;;
6983;SDS011;3532;51.118;7.210;2022-11-15T09:26:58;3.73;;;2.17;;
6983;SDS011;3532;51.118;7.210;2022-11-15T09:29:23;3.07;;;2.27;;
6983;SDS011;3532;51.118;7.210;2022-11-15T09:31:49;5.63;;;2.70;;
6983;SDS011;3532;51.118;7.210;2022-11-15T09:34:16;2.60;;;2.40;;
6983;SDS011;3532;51.118;7.210;2022-11-15T09:36:42;2.40;;;2.10;;
6983;SDS011;3532;51.118;7.210;2022-11-15T09:39:07;3.23;;;1.93;;
6983;SDS011;3532;51.118;7.210;2022-11-15T09:49:57;2.40;;;2.00;;
6983;SDS011;3532;51.118;7.210;2022-11-15T09:52:24;2.30;;;2.10;;
6983;SDS011;3532;51.118;7.210;2022-11-15T09:54:50;2.30;;;1.67;;
6983;SDS011;3532;51.118;7.210;2022-11-15T09:57:27;3.43;;;2.20;;
6983;SDS011;3532;51.118;7.210;2022-11-15T10:00:04;2.30;;;2.10;;
6983;SDS011;3532;51.118;7.210;2022-11-15T10:05:23;2.20;;;2.00;;
6983;SDS011;3532;51.118;7.210;2022-11-15T10:07:59;2.20;;;2.00;;
6983;SDS011;3532;51.118;7.210;2022-11-15T10:13:00;4.00;;;1.90;;
6983;SDS011;3532;51.118;7.210;2022-11-15T10:15:25;2.77;;;2.13;;
6983;SDS011;3532;51.118;7.210;2022-11-15T10:20:27;3.47;;;1.70;;
6983;SDS011;3532;51.118;7.210;2022-11-15T10:22:54;2.10;;;1.70;;
6983;SDS011;3532;51.118;7.210;2022-11-15T10:25:22;2.43;;;1.80;;
6983;SDS011;3532;51.118;7.210;2022-11-15T10:28:06;2.50;;;2.13;;
6983;SDS011;3532;51.118;7.210;2022-11-15T10:30:40;5.50;;;1.90;;
6983;SDS011;3532;51.118;7.210;2022-11-15T10:41:13;2.17;;;1.73;;
6983;SDS011;3532;51.118;7.210;2022-11-15T10:43:40;1.90;;;1.80;;
6983;SDS011;3532;51.118;7.210;2022-11-15T10:46:22;2.43;;;1.87;;
6983;SDS011;3532;51.118;7.210;2022-11-15T10:48:48;1.77;;;1.53;;
6983;SDS011;3532;51.118;7.210;2022-11-15T10:51:26;2.30;;;1.63;;
6983;SDS011;3532;51.118;7.210;2022-11-15T10:53:53;2.10;;;1.77;;
6983;SDS011;3532;51.118;7.210;2022-11-15T10:56:20;2.40;;;1.50;;
6983;SDS011;3532;51.118;7.210;2022-11-15T10:58:53;2.63;;;1.80;;
6983;SDS011;3532;51.118;7.210;2022-11-15T11:01:22;3.20;;;1.93;;
6983;SDS011;3532;51.118;7.210;2022-11-15T11:03:58;2.63;;;2.10;;
6983;SDS011;3532;51.118;7.210;2022-11-15T11:06:25;3.20;;;1.77;;
6983;SDS011;3532;51.118;7.210;2022-11-15T11:08:58;4.30;;;1.67;;
6983;SDS011;3532;51.118;7.210;2022-11-15T11:11:25;2.47;;;1.47;;
6983;SDS011;3532;51.118;7.210;2022-11-15T11:13:52;1.93;;;1.60;;
6983;SDS011;3532;51.118;7.210;2022-11-15T11:16:19;3.17;;;1.87;;
6983;SDS011;3532;51.118;7.210;2022-11-15T11:18:51;3.23;;;1.60;;
6983;SDS011;3532;51.118;7.210;2022-11-15T11:21:36;3.00;;;1.50;;
6983;SDS011;3532;51.118;7.210;2022-11-15T11:24:14;2.57;;;1.60;;
6983;SDS011;3532;51.118;7.210;2022-11-15T11:27:01;3.80;;;1.77;;
6983;SDS011;3532;51.118;7.210;2022-11-15T11:29:41;1.97;;;1.70;;
6983;SDS011;3532;51.118;7.210;2022-11-15T11:32:16;3.43;;;1.70;;
6983;SDS011;3532;51.118;7.210;2022-11-15T11:37:32;2.20;;;1.40;;
6983;SDS011;3532;51.118;7.210;2022-11-15T11:50:33;1.97;;;1.50;;
6983;SDS011;3532;51.118;7.210;2022-11-15T11:53:09;2.40;;;1.77;;
6983;SDS011;3532;51.118;7.210;2022-11-15T11:55:45;2.63;;;1.60;;
6983;SDS011;3532;51.118;7.210;2022-11-15T11:58:37;1.73;;;1.43;;
6983;SDS011;3532;51.118;7.210;2022-11-15T12:01:26;2.87;;;2.00;;
6983;SDS011;3532;51.118;7.210;2022-11-15T12:03:57;3.70;;;1.30;;
6983;SDS011;3532;51.118;7.210;2022-11-15T12:09:42;3.07;;;1.90;;
6983;SDS011;3532;51.118;7.210;2022-11-15T12:14:59;3.37;;;1.60;;
6983;SDS011;3532;51.118;7.210;2022-11-15T12:17:34;3.10;;;1.60;;
6983;SDS011;3532;51.118;7.210;2022-11-15T12:20:05;1.77;;;1.30;;
6983;SDS011;3532;51.118;7.210;2022-11-15T12:22:43;1.43;;;1.23;;
6983;SDS011;3532;51.118;7.210;2022-11-15T12:27:51;2.00;;;1.60;;
6983;SDS011;3532;51.118;7.210;2022-11-15T12:30:20;4.87;;;1.93;;
6983;SDS011;3532;51.118;7.210;2022-11-15T12:32:51;5.00;;;1.70;;
6983;SDS011;3532;51.118;7.210;2022-11-15T12:35:23;3.67;;;1.73;;
6983;SDS011;3532;51.118;7.210;2022-11-15T12:37:51;5.70;;;1.87;;
6983;SDS011;3532;51.118;7.210;2022-11-15T12:42:57;1.77;;;1.30;;
6983;SDS011;3532;51.118;7.210;2022-11-15T12:45:29;1.70;;;1.60;;
6983;SDS011;3532;51.118;7.210;2022-11-15T12:48:44;3.27;;;1.30;;
6983;SDS011;3532;51.118;7.210;2022-11-15T12:50:59;1.70;;;1.60;;
6983;SDS011;3532;51.118;7.210;2022-11-15T12:53:26;2.23;;;1.67;;
6983;SDS011;3532;51.118;7.210;2022-11-15T12:58:41;2.00;;;1.80;;
6983;SDS011;3532;51.118;7.210;2022-11-15T13:01:08;1.93;;;1.60;;
6983;SDS011;3532;51.118;7.210;2022-11-15T13:03:34;5.13;;;2.03;;
6983;SDS011;3532;51.118;7.210;2022-11-15T13:06:01;2.27;;;1.80;;
6983;SDS011;3532;51.118;7.210;2022-11-15T13:08:38;1.93;;;1.70;;
6983;SDS011;3532;51.118;7.210;2022-11-15T13:14:52;3.73;;;1.80;;
6983;SDS011;3532;51.118;7.210;2022-11-15T13:17:27;3.50;;;1.40;;
6983;SDS011;3532;51.118;7.210;2022-11-15T13:27:52;3.07;;;1.93;;
6983;SDS011;3532;51.118;7.210;2022-11-15T13:30:23;2.60;;;1.83;;
6983;SDS011;3532;51.118;7.210;2022-11-15T13:32:52;2.77;;;2.07;;
6983;SDS011;3532;51.118;7.210;2022-11-15T13:35:22;2.23;;;1.80;;
6983;SDS011;3532;51.118;7.210;2022-11-15T13:37:49;2.57;;;2.20;;
6983;SDS011;3532;51.118;7.210;2022-11-15T13:40:18;2.20;;;2.00;;
6983;SDS011;3532;51.118;7.210;2022-11-15T13:42:46;2.60;;;2.40;;
6983;SDS011;3532;51.118;7.210;2022-11-15T13:45:13;3.50;;;2.20;;
6983;SDS011;3532;51.118;7.210;2022-11-15T13:47:40;4.03;;;2.93;;
6983;SDS011;3532;51.118;7.210;2022-11-15T13:50:05;4.23;;;2.10;;
6983;SDS011;3532;51.118;7.210;2022-11-15T13:52:33;2.77;;;2.40;;
6983;SDS011;3532;51.118;7.210;2022-11-15T13:57:45;4.73;;;2.60;;
6983;SDS011;3532;51.118;7.210;2022-11-15T14:00:26;3.00;;;2.43;;
6983;SDS011;3532;51.118;7.210;2022-11-15T14:02:51;2.40;;;2.20;;
6983;SDS011;3532;51.118;7.210;2022-11-15T14:05:22;2.90;;;2.60;;
6983;SDS011;3532;51.118;7.210;2022-11-15T14:07:55;5.37;;;2.40;;
6983;SDS011;3532;51.118;7.210;2022-11-15T14:10:29;3.93;;;2.80;;
6983;SDS011;3532;51.118;7.210;2022-11-15T14:12:59;4.33;;;2.80;;
6983;SDS011;3532;51.118;7.210;2022-11-15T14:17:53;2.97;;;2.63;;
6983;SDS011;3532;51.118;7.210;2022-11-15T14:22:53;2.40;;;2.13;;
6983;SDS011;3532;51.118;7.210;2022-11-15T14:25:24;2.83;;;2.63;;
6983;SDS011;3532;51.118;7.210;2022-11-15T14:30:39;3.00;;;2.70;;
6983;SDS011;3532;51.118;7.210;2022-11-15T14:33:17;3.03;;;2.27;;
6983;SDS011;3532;51.118;7.210;2022-11-15T14:35:43;5.00;;;2.80;;
6983;SDS011;3532;51.118;7.210;2022-11-15T14:38:08;3.17;;;2.80;;
6983;SDS011;3532;51.118;7.210;2022-11-15T14:40:34;5.93;;;2.60;;
6983;SDS011;3532;51.118;7.210;2022-11-15T14:42:59;3.73;;;2.47;;
6983;SDS011;3532;51.118;7.210;2022-11-15T14:45:26;2.77;;;2.50;;
6983;SDS011;3532;51.118;7.210;2022-11-15T14:47:52;2.53;;;2.33;;
6983;SDS011;3532;51.118;7.210;2022-11-15T14:50:19;3.23;;;2.63;;
6983;SDS011;3532;51.118;7.210;2022-11-15T14:52:45;3.73;;;2.50;;
6983;SDS011;3532;51.118;7.210;2022-11-15T14:55:24;3.37;;;2.47;;
6983;SDS011;3532;51.118;7.210;2022-11-15T14:57:54;3.97;;;2.60;;
6983;SDS011;3532;51.118;7.210;2022-11-15T15:00:23;2.50;;;2.30;;
6983;SDS011;3532;51.118;7.210;2022-11-15T15:02:49;2.50;;;2.27;;
6983;SDS011;3532;51.118;7.210;2022-11-15T15:07:42;3.27;;;2.40;;
6983;SDS011;3532;51.118;7.210;2022-11-15T15:10:07;3.97;;;2.37;;
6983;SDS011;3532;51.118;7.210;2022-11-15T15:12:33;3.07;;;2.80;;
6983;SDS011;3532;51.118;7.210;2022-11-15T15:14:58;5.27;;;2.47;;
6983;SDS011;3532;51.118;7.210;2022-11-15T15:17:23;3.17;;;2.57;;
6983;SDS011;3532;51.118;7.210;2022-11-15T15:19:48;3.53;;;2.17;;
6983;SDS011;3532;51.118;7.210;2022-11-15T15:22:15;4.37;;;2.30;;
6983;SDS011;3532;51.118;7.210;2022-11-15T15:24:41;2.90;;;2.53;;
6983;SDS011;3532;51.118;7.210;2022-11-15T15:27:07;4.17;;;2.30;;
6983;SDS011;3532;51.118;7.210;2022-11-15T15:29:33;2.47;;;2.27;;
6983;SDS011;3532;51.118;7.210;2022-11-15T15:31:58;3.43;;;3.07;;
6983;SDS011;3532;51.118;7.210;2022-11-15T15:34:23;3.83;;;2.80;;
6983;SDS011;3532;51.118;7.210;2022-11-15T15:36:49;2.20;;;2.00;;
6983;SDS011;3532;51.118;7.210;2022-11-15T15:39:14;2.73;;;2.53;;
6983;SDS011;3532;51.118;7.210;2022-11-15T15:41:40;2.30;;;2.10;;
6983;SDS011;3532;51.118;7.210;2022-11-15T15:44:05;4.23;;;2.57;;
6983;SDS011;3532;51.118;7.210;2022-11-15T15:46:31;2.40;;;2.20;;
6983;SDS011;3532;51.118;7.210;2022-11-15T15:48:59;2.63;;;1.83;;
6983;SDS011;3532;51.118;7.210;2022-11-15T15:51:24;4.73;;;2.30;;
6983;SDS011;3532;51.118;7.210;2022-11-15T15:53:49;2.70;;;2.50;;
6983;SDS011;3532;51.118;7.210;2022-11-15T15:56:16;2.80;;;2.37;;
6983;SDS011;3532;51.118;7.210;2022-11-15T15:58:41;2.50;;;2.30;;
6983;SDS011;3532;51.118;7.210;2022-11-15T16:01:07;3.53;;;2.60;;
6983;SDS011;3532;51.118;7.210;2022-11-15T16:03:32;2.33;;;2.10;;
6983;SDS011;3532;51.118;7.210;2022-11-15T16:05:57;2.10;;;1.90;;
6983;SDS011;3532;51.118;7.210;2022-11-15T16:08:24;2.20;;;2.00;;
6983;SDS011;3532;51.118;7.210;2022-11-15T16:10:51;3.00;;;2.23;;
6983;SDS011;3532;51.118;7.210;2022-11-15T16:13:16;2.27;;;2.07;;
6983;SDS011;3532;51.118;7.210;2022-11-15T16:15:42;2.83;;;2.27;;
6983;SDS011;3532;51.118;7.210;2022-11-15T16:18:08;3.70;;;2.97;;
6983;SDS011;3532;51.118;7.210;2022-11-15T16:20:40;2.73;;;2.00;;
6983;SDS011;3532;51.118;7.210;2022-11-15T16:23:17;3.43;;;2.33;;
6983;SDS011;3532;51.118;7.210;2022-11-15T16:25:46;2.83;;;2.10;;
6983;SDS011;3532;51.118;7.210;2022-11-15T16:28:33;4.93;;;2.00;;
6983;SDS011;3532;51.118;7.210;2022-11-15T16:31:02;2.43;;;2.13;;
6983;SDS011;3532;51.118;7.210;2022-11-15T16:33:29;3.87;;;2.20;;
6983;SDS011;3532;51.118;7.210;2022-11-15T16:35:55;2.80;;;2.00;;
6983;SDS011;3532;51.118;7.210;2022-11-15T16:38:20;2.40;;;2.13;;
6983;SDS011;3532;51.118;7.210;2022-11-15T16:40:45;2.10;;;2.00;;
6983;SDS011;3532;51.118;7.210;2022-11-15T16:43:11;4.07;;;2.07;;
6983;SDS011;3532;51.118;7.210;2022-11-15T16:45:36;3.03;;;2.23;;
6983;SDS011;3532;51.118;7.210;2022-11-15T16:48:02;2.13;;;2.00;;
6983;SDS011;3532;51.118;7.210;2022-11-15T16:50:28;2.50;;;2.30;;
6983;SDS011;3532;51.118;7.210;2022-11-15T16:52:58;3.10;;;2.17;;
6983;SDS011;3532;51.118;7.210;2022-11-15T16:55:24;2.30;;;2.10;;
6983;SDS011;3532;51.118;7.210;2022-11-15T16:57:52;4.20;;;2.13;;
6983;SDS011;3532;51.118;7.210;2022-11-15T17:00:18;2.40;;;2.20;;
6983;SDS011;3532;51.118;7.210;2022-11-15T17:02:44;2.43;;;2.23;;
6983;SDS011;3532;51.118;7.210;2022-11-15T17:05:10;3.97;;;2.70;;
6983;SDS011;3532;51.118;7.210;2022-11-15T17:07:37;5.30;;;2.77;;